createdAt,value
2022-10-23T04:03:39.271Z,11.95
2022-10-23T04:07:42.162Z,11.93
2022-10-23T04:11:46.231Z,11.87
2022-10-23T04:15:50.286Z,11.80
2022-10-23T04:19:54.320Z,11.80
2022-10-23T04:23:56.946Z,11.84
2022-10-23T04:27:59.613Z,11.88
2022-10-23T04:32:02.364Z,11.92
2022-10-23T04:36:07.315Z,12.00
2022-10-23T04:40:10.678Z,11.91
2022-10-23T04:44:14.247Z,11.74
2022-10-23T04:48:16.930Z,11.80
2022-10-23T04:52:39.580Z,11.77
2022-10-23T04:57:00.542Z,11.54
2022-10-23T05:01:11.481Z,11.51
2022-10-23T05:05:14.778Z,11.61
2022-10-23T05:09:41.816Z,11.57
2022-10-23T05:14:20.625Z,11.53
2022-10-23T05:18:27.790Z,11.54
2022-10-23T05:22:35.533Z,11.50
2022-10-23T05:26:41.551Z,11.40
2022-10-23T05:30:44.242Z,11.38
2022-10-23T05:34:47.437Z,11.40
2022-10-23T05:38:50.465Z,11.41
2022-10-23T05:42:56.086Z,11.47
2022-10-23T05:47:10.069Z,11.42
2022-10-23T05:51:31.204Z,11.40
2022-10-23T05:55:52.503Z,11.37
2022-10-23T06:00:15.429Z,11.52
2022-10-23T06:04:18.102Z,11.43
2022-10-23T06:08:40.695Z,11.33
2022-10-23T06:12:43.531Z,11.44
2022-10-23T06:16:51.324Z,11.44
2022-10-23T06:20:54.994Z,11.45
2022-10-23T06:25:01.150Z,11.47
2022-10-23T06:29:05.214Z,11.45
2022-10-23T06:33:09.202Z,11.66
2022-10-23T06:37:12.127Z,11.87
2022-10-23T06:41:22.714Z,12.15
2022-10-23T06:45:32.470Z,12.26
2022-10-23T06:49:56.445Z,12.42
2022-10-23T06:53:59.406Z,12.36
2022-10-23T06:58:22.046Z,12.14
2022-10-23T07:02:37.375Z,12.17
2022-10-23T07:06:42.183Z,12.36
2022-10-23T07:10:45.389Z,12.45
2022-10-23T07:14:48.409Z,12.41
2022-10-23T07:18:58.746Z,12.61
2022-10-23T07:23:05.458Z,12.64
2022-10-23T07:27:13.200Z,12.91
2022-10-23T07:31:16.136Z,13.27
2022-10-23T07:35:47.492Z,13.79
2022-10-23T07:39:58.386Z,14.14
2022-10-23T07:44:01.392Z,14.33
2022-10-23T07:48:04.285Z,14.47
2022-10-23T07:52:23.529Z,14.65
2022-10-23T07:56:45.967Z,14.87
2022-10-23T08:00:58.436Z,14.98
2022-10-23T08:05:08.471Z,15.05
2022-10-23T08:09:20.886Z,15.33
2022-10-23T08:13:25.001Z,15.54
2022-10-23T08:17:39.146Z,15.75
2022-10-23T08:21:48.882Z,16.02
2022-10-23T08:25:58.377Z,16.22
2022-10-23T08:30:02.407Z,16.51
2022-10-23T08:34:05.661Z,16.74
2022-10-23T08:38:08.446Z,16.85
2022-10-23T08:42:22.405Z,17.18
2022-10-23T08:46:32.279Z,17.50
2022-10-23T08:50:59.233Z,17.88
2022-10-23T08:55:13.333Z,18.07
2022-10-23T08:59:22.716Z,18.27
2022-10-23T09:03:27.499Z,18.40
2022-10-23T09:07:41.728Z,18.72
2022-10-23T09:11:50.258Z,18.84
2022-10-23T09:15:59.628Z,19.12
2022-10-23T09:20:13.976Z,19.51
2022-10-23T09:24:18.451Z,19.74
2022-10-23T09:28:23.048Z,19.97
2022-10-23T09:32:36.780Z,20.18
2022-10-23T09:36:50.767Z,20.29
2022-10-23T09:40:53.731Z,20.36
2022-10-23T09:44:57.432Z,20.66
2022-10-23T09:49:02.197Z,20.59
2022-10-23T09:53:17.672Z,20.87
2022-10-23T09:57:24.892Z,20.83
2022-10-23T10:01:30.795Z,20.63
2022-10-23T10:05:57.575Z,21.11
2022-10-23T10:10:02.071Z,21.01
2022-10-23T10:14:39.178Z,21.33
2022-10-23T10:18:48.533Z,21.28
2022-10-23T10:22:57.092Z,20.99
2022-10-23T10:27:09.319Z,21.04
2022-10-23T10:31:20.507Z,21.21
2022-10-23T10:35:37.155Z,21.47
2022-10-23T10:39:47.032Z,21.77
2022-10-23T10:44:04.326Z,21.78
2022-10-23T10:48:24.464Z,21.77
2022-10-23T10:52:51.409Z,21.73
2022-10-23T10:56:54.779Z,21.74
2022-10-23T11:01:02.392Z,21.81
2022-10-23T11:05:19.781Z,21.86
2022-10-23T11:09:26.223Z,21.95
2022-10-23T11:13:34.554Z,22.06
2022-10-23T11:17:43.426Z,22.19
2022-10-23T11:21:54.039Z,22.50
2022-10-23T11:26:07.633Z,22.27
2022-10-23T11:30:20.304Z,22.12
2022-10-23T11:34:58.493Z,22.03
2022-10-23T11:39:15.575Z,21.96
2022-10-23T11:43:27.821Z,21.98
2022-10-23T11:47:40.574Z,21.91
2022-10-23T11:51:44.700Z,21.90
2022-10-23T11:56:04.900Z,22.14
2022-10-23T12:00:22.107Z,21.90
2022-10-23T12:04:28.926Z,22.22
2022-10-23T12:08:37.213Z,22.41
2022-10-23T12:12:41.015Z,22.44
2022-10-23T12:16:43.658Z,22.33
2022-10-23T12:20:52.434Z,22.27
2022-10-23T12:25:04.278Z,22.31
2022-10-23T12:29:19.951Z,22.22
2022-10-23T12:33:29.304Z,22.11
2022-10-23T12:37:52.438Z,22.04
2022-10-23T12:41:57.324Z,22.03
2022-10-23T12:46:04.815Z,22.04
2022-10-23T12:50:18.746Z,22.02
2022-10-23T12:54:22.617Z,22.09
2022-10-23T12:58:30.047Z,22.04
2022-10-23T13:02:36.799Z,21.88
2022-10-23T13:06:40.312Z,21.85
2022-10-23T13:10:44.788Z,21.60
2022-10-23T13:14:59.575Z,21.86
2022-10-23T13:19:02.178Z,22.04
2022-10-23T13:23:12.152Z,21.94
2022-10-23T13:27:26.718Z,21.94
2022-10-23T13:31:33.507Z,21.93
2022-10-23T13:35:37.258Z,21.79
2022-10-23T13:39:39.843Z,21.79
2022-10-23T13:43:43.177Z,21.91
2022-10-23T13:47:47.131Z,21.69
2022-10-23T13:51:52.037Z,21.62
2022-10-23T13:55:58.761Z,21.78
2022-10-23T14:00:01.535Z,21.75
2022-10-23T14:04:17.966Z,21.45
2022-10-23T14:08:20.714Z,21.32
2022-10-23T14:12:23.318Z,21.32
2022-10-23T14:16:25.958Z,21.28
2022-10-23T14:20:30.107Z,21.17
2022-10-23T14:24:32.702Z,21.06
2022-10-23T14:28:35.387Z,20.99
2022-10-23T14:32:38.118Z,20.94
2022-10-23T14:36:49.825Z,21.09
2022-10-23T14:40:59.407Z,21.13
2022-10-23T14:45:02.602Z,21.41
2022-10-23T14:49:05.109Z,21.29
2022-10-23T14:53:09.094Z,21.19
2022-10-23T14:57:12.407Z,21.17
2022-10-23T15:01:15.016Z,21.42
2022-10-23T15:05:18.388Z,21.17
2022-10-23T15:09:22.196Z,21.22
2022-10-23T15:13:24.980Z,20.86
2022-10-23T15:17:27.676Z,20.71
2022-10-23T15:21:30.408Z,20.43
2022-10-23T15:25:34.395Z,20.51
2022-10-23T15:29:37.064Z,20.42
2022-10-23T15:33:39.680Z,20.38
2022-10-23T15:37:42.665Z,20.20
2022-10-23T15:41:47.174Z,20.15
2022-10-23T15:45:49.765Z,20.06
2022-10-23T15:49:52.344Z,19.95
2022-10-23T15:53:56.974Z,19.84
2022-10-23T15:58:04.108Z,19.77
2022-10-23T16:02:06.978Z,19.64
2022-10-23T16:06:12.760Z,19.55
2022-10-23T16:10:15.397Z,19.54
2022-10-23T16:14:19.391Z,19.57
2022-10-23T16:18:25.098Z,19.51
2022-10-23T16:22:28.210Z,19.49
2022-10-23T16:26:31.467Z,19.46
2022-10-23T16:30:35.355Z,19.50
2022-10-23T16:34:37.791Z,19.28
2022-10-23T16:38:40.400Z,19.12
2022-10-23T16:42:43.303Z,19.08
2022-10-23T16:46:51.051Z,19.05
2022-10-23T16:50:53.603Z,18.89
2022-10-23T16:54:56.256Z,18.87
2022-10-23T16:59:00.478Z,18.90
2022-10-23T17:03:05.620Z,18.88
2022-10-23T17:07:08.339Z,18.96
2022-10-23T17:11:12.675Z,18.99
2022-10-23T17:15:15.259Z,19.01
2022-10-23T17:19:43.354Z,19.09
2022-10-23T17:23:43.635Z,19.06
2022-10-23T17:27:47.055Z,19.04
2022-10-23T17:31:51.302Z,19.10
2022-10-23T17:35:55.290Z,19.25
2022-10-23T17:40:02.348Z,19.42
2022-10-23T17:44:05.406Z,19.41
2022-10-23T17:48:07.993Z,19.53
2022-10-23T17:52:14.825Z,19.84
2022-10-23T17:56:20.151Z,19.81
2022-10-23T18:00:22.897Z,19.81
2022-10-23T18:04:25.488Z,19.81
2022-10-23T18:08:29.559Z,19.71
2022-10-23T18:12:32.531Z,19.68
2022-10-23T18:16:36.771Z,19.73
2022-10-23T18:20:40.902Z,19.67
2022-10-23T18:24:44.880Z,19.72
2022-10-23T18:28:50.006Z,19.56
2022-10-23T18:32:52.619Z,19.73
2022-10-23T18:36:56.405Z,19.74
2022-10-23T18:41:00.318Z,19.69
2022-10-23T18:45:02.898Z,19.48
2022-10-23T18:49:05.764Z,19.38
2022-10-23T18:53:08.802Z,19.37
2022-10-23T18:57:12.739Z,19.33
2022-10-23T19:01:15.426Z,19.17
2022-10-23T19:05:18.157Z,19.18
2022-10-23T19:09:21.039Z,19.17
2022-10-23T19:13:24.969Z,19.05
2022-10-23T19:17:31.070Z,19.04
2022-10-23T19:21:37.855Z,19.07
2022-10-23T19:25:40.473Z,18.93
2022-10-23T19:29:47.459Z,18.92
2022-10-23T19:33:50.580Z,18.87
2022-10-23T19:37:53.144Z,18.87
2022-10-23T19:41:57.538Z,18.71
2022-10-23T19:46:06.377Z,18.63
2022-10-23T19:50:12.038Z,18.64
2022-10-23T19:54:15.319Z,18.28
2022-10-23T19:58:18.704Z,18.37
2022-10-23T20:02:23.292Z,18.44
2022-10-23T20:06:27.824Z,18.24
2022-10-23T20:10:30.515Z,18.18
2022-10-23T20:14:33.373Z,18.12
2022-10-23T20:18:37.274Z,18.22
2022-10-23T20:22:41.810Z,18.22
2022-10-23T20:26:48.697Z,18.18
2022-10-23T20:30:51.271Z,17.84
2022-10-23T20:34:55.413Z,18.00
2022-10-23T20:38:59.211Z,18.06
2022-10-23T20:43:01.840Z,18.05
2022-10-23T20:47:04.413Z,18.06
2022-10-23T20:51:10.313Z,18.00
2022-10-23T20:55:12.897Z,17.72
2022-10-23T20:59:18.151Z,17.49
